Time,TemperatureF,DewpointF,PressureIn,WindDirection,WindDirectionDegrees,WindSpeedMPH,WindSpeedGustMPH,Humidity,HourlyPrecipIn,Conditions,Clouds,dailyrainin,SoftwareType,DateUTC
2013-11-07 00:03:00,33.2,24.8,30.37,NNE,30,0.0,0.0,71,0.00,,CLR,0.00,VWS V14.01,2013-11-07 07:03:00,
2013-11-07 00:09:00,33.2,24.5,30.37,NNE,30,0.0,0.0,70,0.00,,CLR,0.00,VWS V14.01,2013-11-07 07:09:00,
2013-11-07 00:14:00,33.4,25.0,30.37,NNE,30,0.0,0.0,71,0.00,,CLR,0.00,VWS V14.01,2013-11-07 07:14:00,
2013-11-07 00:19:00,33.4,25.4,30.37,NNE,30,0.0,0.0,72,0.00,,CLR,0.00,VWS V14.01,2013-11-07 07:19:00,
2013-11-07 00:24:00,33.4,24.7,30.36,NNE,30,0.0,0.0,70,0.00,,CLR,0.00,VWS V14.01,2013-11-07 07:24:00,
2013-11-07 00:29:00,33.4,25.0,30.36,NNE,30,0.0,0.0,71,0.00,,CLR,0.00,VWS V14.01,2013-11-07 07:29:00,
2013-11-07 00:34:00,33.4,25.4,30.36,NNE,30,0.0,0.0,72,0.00,,CLR,0.00,VWS V14.01,2013-11-07 07:34:00,
2013-11-07 00:39:00,33.5,24.4,30.36,NNE,23,0.0,0.0,69,0.00,,CLR,0.00,VWS V14.01,2013-11-07 07:39:00,
2013-11-07 00:44:00,33.5,24.8,30.36,NNE,23,0.0,0.0,70,0.00,,CLR,0.00,VWS V14.01,2013-11-07 07:44:00,
2013-11-07 00:49:00,33.5,25.1,30.36,NNE,23,0.0,0.0,71,0.00,,CLR,0.00,VWS V14.01,2013-11-07 07:49:00,
2013-11-07 00:54:00,33.5,24.8,30.34,NNE,23,0.0,0.0,70,0.00,,CLR,0.00,VWS V14.01,2013-11-07 07:54:00,
2013-11-07 00:59:00,33.5,25.5,30.34,NNE,24,0.0,0.0,72,0.00,,CLR,0.00,VWS V14.01,2013-11-07 07:59:00,
2013-11-07 01:04:00,33.5,24.4,30.34,ENE,61,0.0,0.0,69,0.00,,CLR,0.00,VWS V14.01,2013-11-07 08:04:00,
2013-11-07 01:09:00,33.7,25.0,30.34,ENE,61,0.0,0.0,70,0.00,,CLR,0.00,VWS V14.01,2013-11-07 08:09:00,
2013-11-07 01:15:00,33.7,25.6,30.34,ENE,61,0.0,0.0,72,0.00,,CLR,0.00,VWS V14.01,2013-11-07 08:15:00,
2013-11-07 01:20:00,33.7,25.3,30.34,ENE,61,0.0,0.0,71,0.00,,CLR,0.00,VWS V14.01,2013-11-07 08:20:00,
2013-11-07 01:25:00,33.5,25.5,30.33,ENE,61,0.0,0.0,72,0.00,,CLR,0.00,VWS V14.01,2013-11-07 08:25:00,
2013-11-07 01:30:00,33.5,25.5,30.33,ENE,61,0.0,0.0,72,0.00,,CLR,0.00,VWS V14.01,2013-11-07 08:30:00,
2013-11-07 01:35:00,33.5,25.8,30.33,ENE,61,0.0,0.0,73,0.00,,CLR,0.00,VWS V14.01,2013-11-07 08:35:00,
2013-11-07 01:40:00,33.5,25.8,30.33,ENE,61,0.0,0.0,73,0.00,,CLR,0.00,VWS V14.01,2013-11-07 08:40:00,
2013-11-07 01:45:00,33.4,25.7,30.33,ENE,61,0.0,0.0,73,0.00,,CLR,0.00,VWS V14.01,2013-11-07 08:45:00,
2013-11-07 01:50:00,33.4,25.7,30.33,ENE,61,0.0,0.0,73,0.00,,CLR,0.00,VWS V14.01,2013-11-07 08:50:00,
2013-11-07 01:55:00,33.4,26.0,30.33,ENE,61,0.0,0.0,74,0.00,,CLR,0.00,VWS V14.01,2013-11-07 08:55:00,
2013-11-07 02:00:00,33.4,26.0,30.33,ENE,61,0.0,0.0,74,0.00,,CLR,0.00,VWS V14.01,2013-11-07 09:00:00,
2013-11-07 02:05:00,33.4,26.3,30.33,ENE,61,0.0,0.0,75,0.00,,CLR,0.00,VWS V14.01,2013-11-07 09:05:00,
2013-11-07 02:10:00,33.4,26.0,30.32,ENE,61,0.0,0.0,74,0.00,,CLR,0.00,VWS V14.01,2013-11-07 09:10:00,
2013-11-07 02:15:00,33.2,25.5,30.32,ENE,61,0.0,0.0,73,0.00,,CLR,0.00,VWS V14.01,2013-11-07 09:15:00,
2013-11-07 02:20:00,33.2,25.8,30.32,ENE,61,0.0,0.0,74,0.00,,CLR,0.00,VWS V14.01,2013-11-07 09:20:00,
2013-11-07 02:25:00,33.2,25.8,30.32,ENE,61,0.0,0.0,74,0.00,,CLR,0.00,VWS V14.01,2013-11-07 09:25:00,
2013-11-07 02:30:00,33.2,26.1,30.32,ENE,61,0.0,0.0,75,0.00,,CLR,0.00,VWS V14.01,2013-11-07 09:30:00,
2013-11-07 02:35:00,33.2,26.1,30.32,ENE,61,0.0,0.0,75,0.00,,CLR,0.00,VWS V14.01,2013-11-07 09:35:00,
2013-11-07 02:41:00,33.1,26.0,30.32,ENE,61,0.0,0.0,75,0.00,,CLR,0.00,VWS V14.01,2013-11-07 09:41:00,
2013-11-07 02:46:00,33.1,26.4,30.32,ENE,61,0.0,0.0,76,0.00,,CLR,0.00,VWS V14.01,2013-11-07 09:46:00,
2013-11-07 02:51:00,33.1,26.4,30.32,ENE,61,0.0,0.0,76,0.00,,CLR,0.00,VWS V14.01,2013-11-07 09:51:00,
2013-11-07 02:56:00,33.1,26.0,30.31,ENE,61,0.0,0.0,75,0.00,,CLR,0.00,VWS V14.01,2013-11-07 09:56:00,
2013-11-07 03:01:00,33.1,26.0,30.31,ENE,61,0.0,0.0,75,0.00,,CLR,0.00,VWS V14.01,2013-11-07 10:01:00,
2013-11-07 03:06:00,33.1,25.4,30.31,ENE,61,0.0,0.0,73,0.00,,CLR,0.00,VWS V14.01,2013-11-07 10:06:00,
2013-11-07 03:11:00,33.1,26.0,30.31,ENE,61,0.0,0.0,75,0.00,,CLR,0.00,VWS V14.01,2013-11-07 10:11:00,
2013-11-07 03:16:00,32.9,26.2,30.31,ENE,61,0.0,0.0,76,0.00,,CLR,0.00,VWS V14.01,2013-11-07 10:16:00,
2013-11-07 03:21:00,32.8,26.1,30.31,ENE,61,0.0,0.0,76,0.00,,CLR,0.00,VWS V14.01,2013-11-07 10:21:00,
2013-11-07 03:26:00,32.7,26.3,30.30,ENE,61,0.0,0.0,77,0.00,,CLR,0.00,VWS V14.01,2013-11-07 10:26:00,
2013-11-07 03:31:00,32.5,26.1,30.30,ENE,61,0.0,0.0,77,0.00,,CLR,0.00,VWS V14.01,2013-11-07 10:31:00,
2013-11-07 03:36:00,32.4,26.0,30.30,ENE,61,0.0,0.0,77,0.00,,CLR,0.00,VWS V14.01,2013-11-07 10:36:00,
2013-11-07 03:41:00,32.4,26.3,30.31,ENE,61,0.0,0.0,78,0.00,,CLR,0.00,VWS V14.01,2013-11-07 10:41:00,
2013-11-07 03:47:00,32.2,26.1,30.31,ENE,61,0.0,0.0,78,0.00,,CLR,0.00,VWS V14.01,2013-11-07 10:47:00,
2013-11-07 03:52:00,32.2,26.1,30.31,ENE,61,0.0,0.0,78,0.00,,CLR,0.00,VWS V14.01,2013-11-07 10:52:00,
2013-11-07 03:57:00,32.1,26.0,30.31,ENE,61,0.0,0.0,78,0.00,,CLR,0.00,VWS V14.01,2013-11-07 10:57:00,
2013-11-07 04:02:00,32.1,26.3,30.31,ENE,61,0.0,0.0,79,0.00,,CLR,0.00,VWS V14.01,2013-11-07 11:02:00,
2013-11-07 04:07:00,32.2,26.4,30.31,ENE,61,0.0,0.0,79,0.00,,CLR,0.00,VWS V14.01,2013-11-07 11:07:00,
2013-11-07 04:12:00,32.2,26.4,30.30,ENE,61,0.0,0.0,79,0.00,,CLR,0.00,VWS V14.01,2013-11-07 11:12:00,
2013-11-07 04:17:00,32.4,26.6,30.30,ENE,61,0.0,0.0,79,0.00,,CLR,0.00,VWS V14.01,2013-11-07 11:17:00,
2013-11-07 04:22:00,32.4,26.6,30.31,ENE,61,0.0,0.0,79,0.00,,CLR,0.00,VWS V14.01,2013-11-07 11:22:00,
2013-11-07 04:27:00,32.4,26.6,30.31,ENE,61,0.0,0.0,79,0.00,,CLR,0.00,VWS V14.01,2013-11-07 11:27:00,
2013-11-07 04:32:00,32.4,26.6,30.31,ENE,61,0.0,0.0,79,0.00,,CLR,0.00,VWS V14.01,2013-11-07 11:32:00,
2013-11-07 04:34:00,32.4,26.6,30.31,ENE,61,0.0,0.0,79,0.00,,CLR,0.00,VWS V14.01,2013-11-07 11:34:00,
2013-11-07 04:39:00,32.4,26.6,30.31,ENE,61,0.0,0.0,79,0.00,,CLR,0.00,VWS V14.01,2013-11-07 11:39:00,
2013-11-07 04:44:00,32.4,26.6,30.31,ENE,61,0.0,0.0,79,0.00,,CLR,0.00,VWS V14.01,2013-11-07 11:44:00,
2013-11-07 04:49:00,32.5,26.7,30.31,ENE,61,0.0,0.0,79,0.00,,CLR,0.00,VWS V14.01,2013-11-07 11:49:00,
2013-11-07 04:54:00,32.7,26.6,30.28,ENE,61,0.0,0.0,78,0.00,,CLR,0.00,VWS V14.01,2013-11-07 11:54:00,
2013-11-07 04:59:00,32.7,26.3,30.28,ENE,61,0.0,0.0,77,0.00,,CLR,0.00,VWS V14.01,2013-11-07 11:59:00,
2013-11-07 05:04:00,32.7,26.6,30.28,ENE,61,0.0,0.0,78,0.00,,CLR,0.00,VWS V14.01,2013-11-07 12:04:00,
2013-11-07 05:09:00,32.7,26.6,30.28,ENE,61,0.0,0.0,78,0.00,,CLR,0.00,VWS V14.01,2013-11-07 12:09:00,
2013-11-07 05:14:00,32.7,26.6,30.28,ENE,61,0.0,0.0,78,0.00,,CLR,0.00,VWS V14.01,2013-11-07 12:14:00,
2013-11-07 05:19:00,32.7,26.6,30.28,ENE,61,0.0,0.0,78,0.00,,CLR,0.00,VWS V14.01,2013-11-07 12:19:00,
2013-11-07 05:24:00,32.7,26.6,30.28,ENE,61,0.0,0.0,78,0.00,,CLR,0.00,VWS V14.01,2013-11-07 12:24:00,
2013-11-07 05:30:00,32.5,26.4,30.28,ENE,61,0.0,0.0,78,0.00,,CLR,0.00,VWS V14.01,2013-11-07 12:30:00,
2013-11-07 05:35:00,32.7,26.6,30.28,ENE,61,0.0,0.0,78,0.00,,CLR,0.00,VWS V14.01,2013-11-07 12:35:00,
2013-11-07 05:40:00,32.7,26.0,30.27,ENE,61,0.0,0.0,76,0.00,,CLR,0.00,VWS V14.01,2013-11-07 12:40:00,
2013-11-07 05:45:00,32.8,25.8,30.27,ENE,61,0.0,0.0,75,0.00,,CLR,0.00,VWS V14.01,2013-11-07 12:45:00,
2013-11-07 05:50:00,32.9,24.2,30.27,SSW,201,0.0,1.0,70,0.00,,CLR,0.00,VWS V14.01,2013-11-07 12:50:00,
2013-11-07 05:55:00,32.9,24.2,30.27,SSW,201,0.0,0.0,70,0.00,,CLR,0.00,VWS V14.01,2013-11-07 12:55:00,
2013-11-07 06:00:00,32.9,23.9,30.27,SSW,201,0.0,0.0,69,0.00,,CLR,0.00,VWS V14.01,2013-11-07 13:00:00,
2013-11-07 06:05:00,32.8,24.8,30.27,SSW,201,0.0,0.0,72,0.00,,CLR,0.00,VWS V14.01,2013-11-07 13:05:00,
2013-11-07 06:10:00,32.7,24.7,30.27,SSW,201,0.0,0.0,72,0.00,,CLR,0.00,VWS V14.01,2013-11-07 13:10:00,
2013-11-07 06:15:00,32.4,24.4,30.27,SSW,201,0.0,0.0,72,0.00,,CLR,0.00,VWS V14.01,2013-11-07 13:15:00,
2013-11-07 06:20:00,32.2,24.9,30.27,SSW,201,0.0,0.0,74,0.00,,CLR,0.00,VWS V14.01,2013-11-07 13:20:00,
2013-11-07 06:25:00,32.1,24.8,30.26,SSW,201,0.0,0.0,74,0.00,,CLR,0.00,VWS V14.01,2013-11-07 13:25:00,
2013-11-07 06:30:00,31.9,24.6,30.26,SSW,201,0.0,0.0,74,0.00,,CLR,0.00,VWS V14.01,2013-11-07 13:30:00,
2013-11-07 06:35:00,31.8,24.8,30.26,SSW,201,0.0,0.0,75,0.00,,CLR,0.00,VWS V14.01,2013-11-07 13:35:00,
2013-11-07 06:40:00,31.6,24.3,30.26,SSW,201,0.0,0.0,74,0.00,,CLR,0.00,VWS V14.01,2013-11-07 13:40:00,
2013-11-07 06:46:00,31.5,24.2,30.26,SSW,201,0.0,0.0,74,0.00,,CLR,0.00,VWS V14.01,2013-11-07 13:46:00,
2013-11-07 06:51:00,31.2,23.9,30.26,SSW,201,0.0,0.0,74,0.00,,CLR,0.00,VWS V14.01,2013-11-07 13:51:00,
2013-11-07 06:56:00,31.0,23.7,30.27,SSW,201,0.0,0.0,74,0.00,,CLR,0.00,VWS V14.01,2013-11-07 13:56:00,
2013-11-07 07:01:00,30.9,23.9,30.27,SSW,201,0.0,0.0,75,0.00,,CLR,0.00,VWS V14.01,2013-11-07 14:01:00,
2013-11-07 07:06:00,30.6,24.0,30.27,SSW,201,0.0,0.0,76,0.00,,CLR,0.00,VWS V14.01,2013-11-07 14:06:00,
2013-11-07 07:11:00,30.4,23.8,30.27,SSW,201,0.0,0.0,76,0.00,,CLR,0.00,VWS V14.01,2013-11-07 14:11:00,
2013-11-07 07:16:00,30.4,24.4,30.27,SSW,201,0.0,0.0,78,0.00,,CLR,0.00,VWS V14.01,2013-11-07 14:16:00,
2013-11-07 07:21:00,30.3,24.3,30.27,SSW,201,0.0,0.0,78,0.00,,CLR,0.00,VWS V14.01,2013-11-07 14:21:00,
2013-11-07 07:26:00,30.1,24.1,30.26,SSW,201,0.0,0.0,78,0.00,,CLR,0.00,VWS V14.01,2013-11-07 14:26:00,
2013-11-07 07:31:00,30.1,24.1,30.26,SSW,201,0.0,0.0,78,0.00,,CLR,0.00,VWS V14.01,2013-11-07 14:31:00,
2013-11-07 07:36:00,30.1,24.7,30.26,SSW,201,0.0,0.0,80,0.00,,CLR,0.00,VWS V14.01,2013-11-07 14:36:00,
2013-11-07 07:41:00,30.1,24.4,30.26,SSW,201,0.0,0.0,79,0.00,,CLR,0.00,VWS V14.01,2013-11-07 14:41:00,
2013-11-07 07:46:00,30.1,24.7,30.26,SSW,201,0.0,0.0,80,0.00,,CLR,0.00,VWS V14.01,2013-11-07 14:46:00,
2013-11-07 07:51:00,30.1,24.7,30.26,SSW,201,0.0,0.0,80,0.00,,CLR,0.00,VWS V14.01,2013-11-07 14:51:00,
2013-11-07 07:56:00,30.3,24.9,30.25,SSW,201,0.0,0.0,80,0.00,,CLR,0.00,VWS V14.01,2013-11-07 14:56:00,
2013-11-07 08:01:00,30.3,25.2,30.25,SSW,201,0.0,0.0,81,0.00,,CLR,0.00,VWS V14.01,2013-11-07 15:01:00,
2013-11-07 08:06:00,30.4,25.0,30.25,SSW,201,0.0,0.0,80,0.00,,CLR,0.00,VWS V14.01,2013-11-07 15:06:00,
2013-11-07 08:12:00,30.4,25.0,30.24,SSW,201,0.0,0.0,80,0.00,,CLR,0.00,VWS V14.01,2013-11-07 15:12:00,
2013-11-07 08:17:00,30.6,25.2,30.24,SSW,201,0.0,0.0,80,0.00,,CLR,0.00,VWS V14.01,2013-11-07 15:17:00,
2013-11-07 08:22:00,30.7,25.3,30.24,SSW,201,0.0,0.0,80,0.00,,CLR,0.00,VWS V14.01,2013-11-07 15:22:00,
2013-11-07 08:27:00,31.0,25.6,30.23,SSW,201,0.0,0.0,80,0.00,,CLR,0.00,VWS V14.01,2013-11-07 15:27:00,
2013-11-07 08:32:00,31.2,25.5,30.23,SSW,201,0.0,0.0,79,0.00,,CLR,0.00,VWS V14.01,2013-11-07 15:32:00,
2013-11-07 08:37:00,31.3,24.3,30.23,SSW,201,0.0,0.0,75,0.00,,CLR,0.00,VWS V14.01,2013-11-07 15:37:00,
2013-11-07 08:42:00,31.6,24.0,30.23,SSW,201,0.0,0.0,73,0.00,,CLR,0.00,VWS V14.01,2013-11-07 15:42:00,
2013-11-07 08:47:00,31.9,24.9,30.23,SSW,201,0.0,0.0,75,0.00,,CLR,0.00,VWS V14.01,2013-11-07 15:47:00,
2013-11-07 08:53:00,32.2,25.5,30.22,SSW,201,0.0,0.0,76,0.00,,CLR,0.00,VWS V14.01,2013-11-07 15:53:00,
2013-11-07 08:58:00,32.4,25.7,30.22,SSW,201,0.0,0.0,76,0.00,,CLR,0.00,VWS V14.01,2013-11-07 15:58:00,
2013-11-07 09:03:00,32.8,26.1,30.22,SSW,201,0.0,0.0,76,0.00,,CLR,0.00,VWS V14.01,2013-11-07 16:03:00,
2013-11-07 09:08:00,33.1,26.7,30.20,SSW,201,0.0,0.0,77,0.00,,CLR,0.00,VWS V14.01,2013-11-07 16:08:00,
2013-11-07 09:13:00,33.5,26.8,30.20,SSW,201,0.0,0.0,76,0.00,,CLR,0.00,VWS V14.01,2013-11-07 16:13:00,
2013-11-07 09:18:00,33.8,25.7,30.20,WNW,282,0.0,1.0,72,0.00,,CLR,0.00,VWS V14.01,2013-11-07 16:18:00,
2013-11-07 09:23:00,34.1,25.0,30.19,WNW,282,0.0,0.0,69,0.00,,CLR,0.00,VWS V14.01,2013-11-07 16:23:00,
2013-11-07 09:28:00,34.4,25.0,30.19,WNW,282,0.0,0.0,68,0.00,,CLR,0.00,VWS V14.01,2013-11-07 16:28:00,
2013-11-07 09:33:00,34.7,25.2,30.19,WNW,282,0.0,0.0,68,0.00,,CLR,0.00,VWS V14.01,2013-11-07 16:33:00,
2013-11-07 09:38:00,35.0,26.6,30.17,WNW,282,0.0,0.0,71,0.00,,CLR,0.00,VWS V14.01,2013-11-07 16:38:00,
2013-11-07 09:44:00,35.2,26.8,30.17,WNW,282,0.0,0.0,71,0.00,,CLR,0.00,VWS V14.01,2013-11-07 16:44:00,
2013-11-07 09:49:00,35.3,26.2,30.17,WNW,282,0.0,0.0,69,0.00,,CLR,0.00,VWS V14.01,2013-11-07 16:49:00,
2013-11-07 09:54:00,35.5,26.0,30.16,WNW,282,0.0,0.0,68,0.00,,CLR,0.00,VWS V14.01,2013-11-07 16:54:00,
2013-11-07 09:59:00,35.5,25.6,30.16,WNW,282,0.0,0.0,67,0.00,,CLR,0.00,VWS V14.01,2013-11-07 16:59:00,
2013-11-07 10:04:00,35.5,25.6,30.16,WNW,282,0.0,0.0,67,0.00,,CLR,0.00,VWS V14.01,2013-11-07 17:04:00,
2013-11-07 10:09:00,35.5,26.7,30.15,WNW,282,0.0,0.0,70,0.00,,CLR,0.00,VWS V14.01,2013-11-07 17:09:00,
2013-11-07 10:15:00,35.6,26.8,30.15,WNW,282,0.0,0.0,70,0.00,,CLR,0.00,VWS V14.01,2013-11-07 17:15:00,
2013-11-07 10:20:00,35.9,27.4,30.15,WNW,282,0.0,0.0,71,0.00,,CLR,0.00,VWS V14.01,2013-11-07 17:20:00,
2013-11-07 10:25:00,36.2,28.1,30.13,WNW,282,0.0,0.0,72,0.00,,CLR,0.00,VWS V14.01,2013-11-07 17:25:00,
2013-11-07 10:30:00,36.5,28.4,30.13,WNW,282,0.0,0.0,72,0.00,,CLR,0.00,VWS V14.01,2013-11-07 17:30:00,
2013-11-07 10:35:00,36.9,28.7,30.13,WNW,282,0.0,0.0,72,0.00,,CLR,0.00,VWS V14.01,2013-11-07 17:35:00,
2013-11-07 10:40:00,37.3,29.1,30.12,WNW,282,0.0,0.0,72,0.00,,CLR,0.00,VWS V14.01,2013-11-07 17:40:00,
2013-11-07 10:46:00,37.6,29.1,30.12,WNW,282,0.0,0.0,71,0.00,,CLR,0.00,VWS V14.01,2013-11-07 17:46:00,
2013-11-07 10:51:00,38.0,29.1,30.12,WNW,282,0.0,0.0,70,0.00,,CLR,0.00,VWS V14.01,2013-11-07 17:51:00,
2013-11-07 10:56:00,38.5,29.6,30.10,WNW,282,0.0,0.0,70,0.00,,CLR,0.00,VWS V14.01,2013-11-07 17:56:00,
2013-11-07 10:59:00,38.8,29.5,30.10,WNW,282,0.0,0.0,69,0.00,,CLR,0.00,VWS V14.01,2013-11-07 17:59:00,
2013-11-07 11:04:00,38.8,27.7,30.10,WNW,285,0.0,1.0,64,0.00,,CLR,0.00,VWS V14.01,2013-11-07 18:04:00,
2013-11-07 11:09:00,38.8,27.7,30.09,WNW,285,0.0,0.0,64,0.00,,CLR,0.00,VWS V14.01,2013-11-07 18:09:00,
2013-11-07 11:15:00,38.6,27.9,30.09,WNW,285,0.0,0.0,65,0.01,,CLR,0.01,VWS V14.01,2013-11-07 18:15:00,
2013-11-07 11:20:00,38.3,28.7,30.09,WNW,285,0.0,0.0,68,0.01,,CLR,0.01,VWS V14.01,2013-11-07 18:20:00,
2013-11-07 11:25:00,38.2,28.9,30.08,WNW,285,0.0,0.0,69,0.01,,CLR,0.01,VWS V14.01,2013-11-07 18:25:00,
2013-11-07 11:30:00,38.3,29.4,30.08,WNW,285,0.0,0.0,70,0.01,,CLR,0.01,VWS V14.01,2013-11-07 18:30:00,
2013-11-07 11:35:00,38.5,28.9,30.08,WNW,282,0.0,2.0,68,0.01,,CLR,0.01,VWS V14.01,2013-11-07 18:35:00,
2013-11-07 11:40:00,38.8,28.1,30.07,WSW,237,0.0,3.0,65,0.01,,CLR,0.01,VWS V14.01,2013-11-07 18:40:00,
2013-11-07 11:45:00,38.9,28.5,30.07,WSW,237,0.0,0.0,66,0.01,,CLR,0.01,VWS V14.01,2013-11-07 18:45:00,
2013-11-07 11:51:00,39.1,29.5,30.07,WSW,237,0.0,0.0,68,0.01,,CLR,0.01,VWS V14.01,2013-11-07 18:51:00,
2013-11-07 11:56:00,39.3,30.0,30.05,WSW,237,0.0,0.0,69,0.01,,CLR,0.01,VWS V14.01,2013-11-07 18:56:00,
2013-11-07 12:01:00,39.5,30.2,30.05,WSW,237,0.0,0.0,69,0.01,,CLR,0.01,VWS V14.01,2013-11-07 19:01:00,
2013-11-07 12:06:00,39.9,30.6,30.05,WSW,237,0.0,0.0,69,0.01,,CLR,0.01,VWS V14.01,2013-11-07 19:06:00,
2013-11-07 12:11:00,40.3,30.6,30.04,WSW,237,0.0,0.0,68,0.01,,CLR,0.01,VWS V14.01,2013-11-07 19:11:00,
2013-11-07 12:16:00,40.6,30.9,30.04,NE,40,0.0,3.0,68,0.01,,CLR,0.01,VWS V14.01,2013-11-07 19:16:00,
2013-11-07 12:21:00,41.1,31.0,30.04,NE,40,0.0,0.0,67,0.00,,CLR,0.01,VWS V14.01,2013-11-07 19:21:00,
2013-11-07 12:26:00,41.5,31.7,30.02,NE,46,0.0,2.0,68,0.00,,CLR,0.01,VWS V14.01,2013-11-07 19:26:00,
2013-11-07 12:32:00,41.8,30.5,30.02,NE,46,0.0,1.0,64,0.00,,CLR,0.01,VWS V14.01,2013-11-07 19:32:00,
2013-11-07 12:37:00,42.2,31.7,30.02,NE,46,0.0,0.0,66,0.00,,CLR,0.01,VWS V14.01,2013-11-07 19:37:00,
2013-11-07 12:42:00,42.5,31.6,30.00,NE,46,0.0,0.0,65,0.00,,CLR,0.01,VWS V14.01,2013-11-07 19:42:00,
2013-11-07 12:47:00,42.8,31.9,30.00,NE,46,1.0,1.0,65,0.00,,CLR,0.01,VWS V14.01,2013-11-07 19:47:00,
2013-11-07 12:52:00,43.1,31.8,30.00,North,360,0.0,4.0,64,0.00,,CLR,0.01,VWS V14.01,2013-11-07 19:52:00,
2013-11-07 12:57:00,43.2,32.2,29.98,North,9,0.0,0.0,65,0.00,,CLR,0.01,VWS V14.01,2013-11-07 19:57:00,
2013-11-07 13:02:00,43.5,31.0,29.98,ENE,76,0.0,2.0,61,0.00,,CLR,0.01,VWS V14.01,2013-11-07 20:02:00,
2013-11-07 13:07:00,44.2,30.4,29.96,NW,320,1.0,9.0,58,0.00,,CLR,0.01,VWS V14.01,2013-11-07 20:07:00,
2013-11-07 13:12:00,45.4,30.6,29.96,NW,311,0.0,7.0,56,0.00,,CLR,0.01,VWS V14.01,2013-11-07 20:12:00,
2013-11-07 13:17:00,46.2,30.5,29.96,West,274,1.0,7.0,54,0.00,,CLR,0.01,VWS V14.01,2013-11-07 20:17:00,
2013-11-07 13:22:00,46.8,31.0,29.94,ENE,73,4.0,7.0,54,0.00,,CLR,0.01,VWS V14.01,2013-11-07 20:22:00,
2013-11-07 13:27:00,47.0,31.7,29.94,North,9,0.0,5.0,55,0.00,,CLR,0.01,VWS V14.01,2013-11-07 20:27:00,
2013-11-07 13:33:00,46.8,31.5,29.94,NE,52,0.0,4.0,55,0.00,,CLR,0.01,VWS V14.01,2013-11-07 20:33:00,
2013-11-07 13:38:00,46.7,31.0,29.94,NNE,17,0.0,5.0,54,0.00,,CLR,0.01,VWS V14.01,2013-11-07 20:38:00,
2013-11-07 13:43:00,46.7,31.4,29.94,East,90,1.0,3.0,55,0.00,,CLR,0.01,VWS V14.01,2013-11-07 20:43:00,
2013-11-07 13:48:00,46.8,31.5,29.94,NE,38,1.0,5.0,55,0.00,,CLR,0.01,VWS V14.01,2013-11-07 20:48:00,
2013-11-07 13:53:00,46.8,30.1,29.92,ENE,74,0.0,4.0,52,0.00,,CLR,0.01,VWS V14.01,2013-11-07 20:53:00,
2013-11-07 13:58:00,47.0,30.3,29.92,West,268,1.0,3.0,52,0.00,,CLR,0.01,VWS V14.01,2013-11-07 20:58:00,
2013-11-07 14:03:00,47.3,31.5,29.92,ENE,67,0.0,0.0,54,0.00,,CLR,0.01,VWS V14.01,2013-11-07 21:03:00,
2013-11-07 14:08:00,47.4,31.1,29.92,NE,46,0.0,0.0,53,0.00,,CLR,0.01,VWS V14.01,2013-11-07 21:08:00,
2013-11-07 14:13:00,47.4,31.6,29.92,ENE,67,2.0,2.0,54,0.00,,CLR,0.01,VWS V14.01,2013-11-07 21:13:00,
2013-11-07 14:19:00,47.6,30.9,29.92,NNW,336,0.0,2.0,52,0.00,,CLR,0.01,VWS V14.01,2013-11-07 21:19:00,
2013-11-07 14:24:00,47.7,32.3,29.90,NW,317,1.0,2.0,55,0.00,,CLR,0.01,VWS V14.01,2013-11-07 21:24:00,
2013-11-07 14:29:00,47.4,32.5,29.90,NNE,19,0.0,0.0,56,0.00,,CLR,0.01,VWS V14.01,2013-11-07 21:29:00,
2013-11-07 14:34:00,47.1,30.9,29.90,NE,53,2.0,9.0,53,0.00,,CLR,0.01,VWS V14.01,2013-11-07 21:34:00,
2013-11-07 14:39:00,46.8,32.4,29.89,NNE,32,0.0,0.0,57,0.00,,CLR,0.01,VWS V14.01,2013-11-07 21:39:00,
2013-11-07 14:44:00,46.5,32.5,29.89,NNE,29,0.0,0.0,58,0.00,,CLR,0.01,VWS V14.01,2013-11-07 21:44:00,
2013-11-07 14:49:00,46.2,32.2,29.89,NNE,29,0.0,0.0,58,0.00,,CLR,0.01,VWS V14.01,2013-11-07 21:49:00,
2013-11-07 14:55:00,46.0,32.1,29.89,NNE,29,0.0,0.0,58,0.00,,CLR,0.01,VWS V14.01,2013-11-07 21:55:00,
2013-11-07 15:00:00,45.8,31.5,29.89,East,84,0.0,0.0,57,0.00,,CLR,0.01,VWS V14.01,2013-11-07 22:00:00,
2013-11-07 15:05:00,45.7,32.6,29.89,East,82,0.0,0.0,60,0.00,,CLR,0.01,VWS V14.01,2013-11-07 22:05:00,
2013-11-07 15:10:00,45.7,32.2,29.88,East,82,0.0,0.0,59,0.00,,CLR,0.01,VWS V14.01,2013-11-07 22:10:00,
2013-11-07 15:15:00,45.8,32.7,29.88,East,82,0.0,0.0,60,0.00,,CLR,0.01,VWS V14.01,2013-11-07 22:15:00,
2013-11-07 15:20:00,45.8,32.7,29.88,NNE,26,0.0,0.0,60,0.00,,CLR,0.01,VWS V14.01,2013-11-07 22:20:00,
2013-11-07 15:25:00,45.8,32.3,29.86,NE,39,1.0,3.0,59,0.00,,CLR,0.01,VWS V14.01,2013-11-07 22:25:00,
2013-11-07 15:31:00,46.2,31.4,29.86,NW,315,0.0,3.0,56,0.00,,CLR,0.01,VWS V14.01,2013-11-07 22:31:00,
2013-11-07 15:36:00,46.4,32.4,29.86,NNW,329,0.0,0.0,58,0.00,,CLR,0.01,VWS V14.01,2013-11-07 22:36:00,
2013-11-07 15:41:00,46.1,33.0,29.86,NNW,329,0.0,0.0,60,0.00,,CLR,0.01,VWS V14.01,2013-11-07 22:41:00,
2013-11-07 15:46:00,45.7,32.2,29.86,NNW,329,0.0,0.0,59,0.00,,CLR,0.01,VWS V14.01,2013-11-07 22:46:00,
2013-11-07 15:51:00,45.7,31.8,29.86,NE,51,0.0,2.0,58,0.00,,CLR,0.01,VWS V14.01,2013-11-07 22:51:00,
2013-11-07 15:57:00,45.8,31.9,29.84,ENE,74,0.0,4.0,58,0.00,,CLR,0.01,VWS V14.01,2013-11-07 22:57:00,
2013-11-07 16:02:00,45.8,31.9,29.84,NE,35,2.0,5.0,58,0.00,,CLR,0.01,VWS V14.01,2013-11-07 23:02:00,
2013-11-07 16:07:00,45.7,32.6,29.84,ENE,71,0.0,3.0,60,0.00,,CLR,0.01,VWS V14.01,2013-11-07 23:07:00,
2013-11-07 16:12:00,45.5,31.6,29.84,ENE,60,4.0,6.0,58,0.00,,CLR,0.01,VWS V14.01,2013-11-07 23:12:00,
2013-11-07 16:17:00,46.0,31.6,29.84,East,94,0.0,4.0,57,0.00,,CLR,0.01,VWS V14.01,2013-11-07 23:17:00,
2013-11-07 16:22:00,45.8,32.3,29.83,East,86,0.0,2.0,59,0.00,,CLR,0.01,VWS V14.01,2013-11-07 23:22:00,
2013-11-07 16:27:00,45.4,32.3,29.83,East,86,0.0,0.0,60,0.00,,CLR,0.01,VWS V14.01,2013-11-07 23:27:00,
2013-11-07 16:33:00,45.1,32.5,29.83,East,86,0.0,0.0,61,0.00,,CLR,0.01,VWS V14.01,2013-11-07 23:33:00,
2013-11-07 16:38:00,44.6,33.2,29.82,East,86,0.0,0.0,64,0.00,,CLR,0.01,VWS V14.01,2013-11-07 23:38:00,
2013-11-07 16:43:00,44.3,32.9,29.82,East,86,0.0,0.0,64,0.00,,CLR,0.01,VWS V14.01,2013-11-07 23:43:00,
2013-11-07 16:48:00,44.2,33.2,29.82,East,86,0.0,0.0,65,0.00,,CLR,0.01,VWS V14.01,2013-11-07 23:48:00,
2013-11-07 16:53:00,43.9,32.5,29.83,East,86,0.0,0.0,64,0.00,,CLR,0.01,VWS V14.01,2013-11-07 23:53:00,
2013-11-07 16:59:00,43.6,33.0,29.83,East,86,0.0,0.0,66,0.00,,CLR,0.01,VWS V14.01,2013-11-07 23:59:00,
2013-11-07 17:04:00,43.3,32.7,29.83,East,86,0.0,0.0,66,0.00,,CLR,0.01,VWS V14.01,2013-11-08 00:04:00,
2013-11-07 17:09:00,43.2,32.2,29.81,East,86,0.0,0.0,65,0.00,,CLR,0.01,VWS V14.01,2013-11-08 00:09:00,
2013-11-07 17:14:00,43.1,32.5,29.81,East,86,0.0,0.0,66,0.00,,CLR,0.01,VWS V14.01,2013-11-08 00:14:00,
2013-11-07 17:19:00,42.9,32.7,29.81,East,86,0.0,0.0,67,0.00,,CLR,0.01,VWS V14.01,2013-11-08 00:19:00,
2013-11-07 17:24:00,42.8,32.6,29.80,East,86,0.0,0.0,67,0.00,,CLR,0.01,VWS V14.01,2013-11-08 00:24:00,
2013-11-07 17:29:00,42.6,32.8,29.80,East,86,0.0,0.0,68,0.00,,CLR,0.01,VWS V14.01,2013-11-08 00:29:00,
2013-11-07 17:35:00,42.8,33.0,29.80,ESE,103,0.0,0.0,68,0.00,,CLR,0.01,VWS V14.01,2013-11-08 00:35:00,
2013-11-07 17:40:00,42.9,33.1,29.78,ESE,103,0.0,0.0,68,0.00,,CLR,0.01,VWS V14.01,2013-11-08 00:40:00,
2013-11-07 17:45:00,43.1,32.9,29.78,West,271,0.0,0.0,67,0.00,,CLR,0.01,VWS V14.01,2013-11-08 00:45:00,
2013-11-07 17:50:00,43.2,33.4,29.78,North,355,0.0,1.0,68,0.00,,CLR,0.01,VWS V14.01,2013-11-08 00:50:00,
2013-11-07 17:55:00,43.1,33.3,29.77,North,355,0.0,0.0,68,0.00,,CLR,0.01,VWS V14.01,2013-11-08 00:55:00,
2013-11-07 18:00:00,42.8,33.3,29.77,NNE,32,0.0,0.0,69,0.00,,CLR,0.01,VWS V14.01,2013-11-08 01:00:00,
2013-11-07 18:05:00,42.6,33.5,29.77,NE,42,0.0,2.0,70,0.00,,CLR,0.01,VWS V14.01,2013-11-08 01:05:00,
2013-11-07 18:11:00,42.5,33.4,29.76,NE,42,0.0,0.0,70,0.00,,CLR,0.01,VWS V14.01,2013-11-08 01:11:00,
2013-11-07 18:16:00,42.5,33.4,29.76,NE,38,0.0,0.0,70,0.00,,CLR,0.01,VWS V14.01,2013-11-08 01:16:00,
2013-11-07 18:21:00,42.3,33.2,29.76,NE,38,0.0,0.0,70,0.00,,CLR,0.01,VWS V14.01,2013-11-08 01:21:00,
2013-11-07 18:26:00,42.2,33.1,29.77,NE,38,0.0,1.0,70,0.00,,CLR,0.01,VWS V14.01,2013-11-08 01:26:00,
2013-11-07 18:31:00,42.1,33.0,29.77,ENE,73,0.0,3.0,70,0.00,,CLR,0.01,VWS V14.01,2013-11-08 01:31:00,
2013-11-07 18:36:00,41.9,32.8,29.77,SSW,201,0.0,3.0,70,0.00,,CLR,0.01,VWS V14.01,2013-11-08 01:36:00,
2013-11-07 18:41:00,41.9,33.2,29.77,SSW,201,0.0,0.0,71,0.00,,CLR,0.01,VWS V14.01,2013-11-08 01:41:00,
2013-11-07 18:46:00,41.9,32.8,29.77,SSW,201,0.0,0.0,70,0.00,,CLR,0.01,VWS V14.01,2013-11-08 01:46:00,
2013-11-07 18:51:00,42.1,33.0,29.77,ENE,69,0.0,2.0,70,0.00,,CLR,0.01,VWS V14.01,2013-11-08 01:51:00,
2013-11-07 18:56:00,42.1,32.7,29.76,ENE,69,0.0,0.0,69,0.00,,CLR,0.01,VWS V14.01,2013-11-08 01:56:00,
2013-11-07 19:01:00,42.1,32.7,29.76,ENE,69,0.0,1.0,69,0.00,,CLR,0.01,VWS V14.01,2013-11-08 02:01:00,
2013-11-07 19:06:00,42.1,33.0,29.76,ENE,69,0.0,0.0,70,0.00,,CLR,0.01,VWS V14.01,2013-11-08 02:06:00,
2013-11-07 19:11:00,41.9,33.2,29.76,ENE,65,0.0,1.0,71,0.00,,CLR,0.01,VWS V14.01,2013-11-08 02:11:00,
2013-11-07 19:16:00,41.9,33.5,29.76,ENE,65,0.0,0.0,72,0.00,,CLR,0.01,VWS V14.01,2013-11-08 02:16:00,
2013-11-07 19:21:00,41.8,33.8,29.76,ENE,65,0.0,0.0,73,0.00,,CLR,0.01,VWS V14.01,2013-11-08 02:21:00,
2013-11-07 19:26:00,41.6,34.6,29.76,ENE,65,0.0,0.0,76,0.01,,CLR,0.02,VWS V14.01,2013-11-08 02:26:00,
2013-11-07 19:31:00,41.5,35.5,29.76,ENE,65,0.0,0.0,79,0.01,,CLR,0.02,VWS V14.01,2013-11-08 02:31:00,
2013-11-07 19:37:00,41.2,35.8,29.76,ENE,65,0.0,1.0,81,0.01,,CLR,0.02,VWS V14.01,2013-11-08 02:37:00,
2013-11-07 19:42:00,40.8,34.8,29.77,NE,44,0.0,5.0,79,0.01,,CLR,0.02,VWS V14.01,2013-11-08 02:42:00,
2013-11-07 19:47:00,40.5,34.5,29.77,NE,36,1.0,3.0,79,0.01,,CLR,0.02,VWS V14.01,2013-11-08 02:47:00,
2013-11-07 19:52:00,40.6,34.3,29.77,ENE,62,4.0,4.0,78,0.01,,CLR,0.02,VWS V14.01,2013-11-08 02:52:00,
2013-11-07 19:57:00,40.9,33.9,29.76,ENE,67,0.0,5.0,76,0.01,,CLR,0.02,VWS V14.01,2013-11-08 02:57:00,
2013-11-07 20:02:00,41.2,34.2,29.76,North,355,0.0,1.0,76,0.01,,CLR,0.02,VWS V14.01,2013-11-08 03:02:00,
2013-11-07 20:07:00,41.1,33.8,29.76,NE,42,2.0,6.0,75,0.01,,CLR,0.02,VWS V14.01,2013-11-08 03:07:00,
2013-11-07 20:12:00,41.1,34.1,29.75,NE,44,0.0,3.0,76,0.01,,CLR,0.02,VWS V14.01,2013-11-08 03:12:00,
2013-11-07 20:17:00,41.1,33.8,29.75,NE,40,0.0,1.0,75,0.01,,CLR,0.02,VWS V14.01,2013-11-08 03:17:00,
2013-11-07 20:22:00,40.9,34.3,29.75,NNE,28,0.0,1.0,77,0.01,,CLR,0.02,VWS V14.01,2013-11-08 03:22:00,
2013-11-07 20:27:00,40.8,34.2,29.72,NNE,28,0.0,0.0,77,0.01,,CLR,0.02,VWS V14.01,2013-11-08 03:27:00,
2013-11-07 20:32:00,40.5,34.2,29.72,NNE,28,0.0,0.0,78,0.00,,CLR,0.02,VWS V14.01,2013-11-08 03:32:00,
2013-11-07 20:37:00,40.2,33.6,29.71,North,10,0.0,4.0,77,0.00,,CLR,0.02,VWS V14.01,2013-11-08 03:37:00,
2013-11-07 20:42:00,40.1,33.8,29.71,ENE,68,0.0,2.0,78,0.00,,CLR,0.02,VWS V14.01,2013-11-08 03:42:00,
2013-11-07 20:47:00,40.1,33.5,29.71,NNW,348,0.0,11.0,77,0.00,,CLR,0.02,VWS V14.01,2013-11-08 03:47:00,
2013-11-07 20:52:00,40.1,33.5,29.71,NNW,348,0.0,1.0,77,0.00,,CLR,0.02,VWS V14.01,2013-11-08 03:52:00,
2013-11-07 20:57:00,39.9,33.6,29.71,ENE,71,0.0,4.0,78,0.00,,CLR,0.02,VWS V14.01,2013-11-08 03:57:00,
2013-11-07 21:03:00,39.9,33.6,29.71,North,355,0.0,5.0,78,0.00,,CLR,0.02,VWS V14.01,2013-11-08 04:03:00,
2013-11-07 21:08:00,40.2,33.9,29.70,NE,51,0.0,0.0,78,0.00,,CLR,0.02,VWS V14.01,2013-11-08 04:08:00,
2013-11-07 21:13:00,40.2,33.9,29.70,NE,51,0.0,0.0,78,0.00,,CLR,0.02,VWS V14.01,2013-11-08 04:13:00,
2013-11-07 21:18:00,40.1,33.5,29.70,ENE,69,0.0,3.0,77,0.00,,CLR,0.02,VWS V14.01,2013-11-08 04:18:00,
2013-11-07 21:23:00,40.1,33.5,29.66,ENE,70,0.0,1.0,77,0.00,,CLR,0.02,VWS V14.01,2013-11-08 04:23:00,
2013-11-07 21:28:00,39.9,33.6,29.66,ENE,70,0.0,0.0,78,0.00,,CLR,0.02,VWS V14.01,2013-11-08 04:28:00,
2013-11-07 21:33:00,39.9,33.6,29.66,ENE,70,0.0,0.0,78,0.00,,CLR,0.02,VWS V14.01,2013-11-08 04:33:00,
2013-11-07 21:38:00,39.8,33.8,29.69,ENE,71,2.0,2.0,79,0.00,,CLR,0.02,VWS V14.01,2013-11-08 04:38:00,
2013-11-07 21:43:00,39.9,34.2,29.69,ENE,68,3.0,4.0,80,0.02,,CLR,0.04,VWS V14.01,2013-11-08 04:43:00,
2013-11-07 21:48:00,39.5,34.2,29.69,ENE,69,4.0,5.0,81,0.04,,CLR,0.06,VWS V14.01,2013-11-08 04:48:00,
2013-11-07 21:53:00,38.8,33.8,29.79,NNE,12,1.0,2.0,82,0.05,,CLR,0.07,VWS V14.01,2013-11-08 04:53:00,
2013-11-07 21:58:00,37.9,33.2,29.79,ESE,111,0.0,0.0,83,0.06,,CLR,0.08,VWS V14.01,2013-11-08 04:58:00,
2013-11-07 22:01:00,37.6,33.2,29.79,ESE,111,0.0,1.0,84,0.06,,CLR,0.08,VWS V14.01,2013-11-08 05:01:00,
2013-11-07 22:02:00,37.6,33.2,29.79,NNE,18,3.0,3.0,84,0.06,,CLR,0.08,VWS V14.01,2013-11-08 05:02:00,
2013-11-07 22:06:00,37.2,32.8,29.79,ENE,69,0.0,6.0,84,0.07,,CLR,0.09,VWS V14.01,2013-11-08 05:06:00,
2013-11-07 22:08:00,36.9,32.5,29.81,SSW,194,10.0,16.0,84,0.07,,CLR,0.09,VWS V14.01,2013-11-08 05:08:00,
2013-11-07 22:13:00,36.6,32.2,29.81,ESE,111,4.0,5.0,84,0.08,,CLR,0.10,VWS V14.01,2013-11-08 05:13:00,
2013-11-07 22:18:00,36.5,31.2,29.81,ENE,73,0.0,0.0,81,0.08,,CLR,0.10,VWS V14.01,2013-11-08 05:18:00,
2013-11-07 22:24:00,36.3,31.6,29.81,East,88,0.0,1.0,83,0.08,,CLR,0.10,VWS V14.01,2013-11-08 05:24:00,
2013-11-07 22:29:00,36.0,31.6,29.81,NE,40,3.0,3.0,84,0.08,,CLR,0.10,VWS V14.01,2013-11-08 05:29:00,
2013-11-07 22:34:00,35.9,31.0,29.81,ENE,72,3.0,3.0,82,0.08,,CLR,0.10,VWS V14.01,2013-11-08 05:34:00,
2013-11-07 22:39:00,35.8,31.1,29.80,ENE,61,0.0,0.0,83,0.08,,CLR,0.10,VWS V14.01,2013-11-08 05:39:00,
2013-11-07 22:44:00,35.6,31.5,29.80,ENE,63,0.0,0.0,85,0.06,,CLR,0.10,VWS V14.01,2013-11-08 05:44:00,
2013-11-07 22:49:00,35.5,31.5,29.80,NW,304,3.0,3.0,85,0.04,,CLR,0.10,VWS V14.01,2013-11-08 05:49:00,
2013-11-07 22:54:00,35.3,31.0,29.81,North,11,0.0,0.0,84,0.03,,CLR,0.10,VWS V14.01,2013-11-08 05:54:00,
2013-11-07 22:59:00,35.3,30.4,29.81,NNW,331,0.0,0.0,82,0.02,,CLR,0.10,VWS V14.01,2013-11-08 05:59:00,
2013-11-07 23:04:00,35.5,30.9,29.81,NE,40,0.0,1.0,83,0.01,,CLR,0.10,VWS V14.01,2013-11-08 06:04:00,
2013-11-07 23:09:00,35.5,30.9,29.80,NNW,329,0.0,1.0,83,0.01,,CLR,0.00,VWS V14.01,2013-11-08 06:09:00,
2013-11-07 23:14:00,35.5,29.6,29.80,NE,45,0.0,0.0,79,0.00,,CLR,0.00,VWS V14.01,2013-11-08 06:14:00,
2013-11-07 23:19:00,35.6,30.0,29.80,East,89,0.0,4.0,80,0.00,,CLR,0.00,VWS V14.01,2013-11-08 06:19:00,
2013-11-07 23:24:00,35.6,30.0,29.78,ESE,108,4.0,7.0,80,0.00,,CLR,0.00,VWS V14.01,2013-11-08 06:24:00,
2013-11-07 23:29:00,35.8,29.6,29.78,SSW,195,2.0,4.0,78,0.00,,CLR,0.00,VWS V14.01,2013-11-08 06:29:00,
2013-11-07 23:34:00,36.0,28.2,29.78,ENE,59,1.0,7.0,73,0.00,,CLR,0.00,VWS V14.01,2013-11-08 06:34:00,
2013-11-07 23:40:00,36.2,30.0,29.78,ENE,59,0.0,0.0,78,0.00,,CLR,0.00,VWS V14.01,2013-11-08 06:40:00,
2013-11-07 23:45:00,35.9,30.0,29.78,ENE,59,0.0,0.0,79,0.00,,CLR,0.00,VWS V14.01,2013-11-08 06:45:00,
2013-11-07 23:50:00,35.6,29.4,29.78,North,5,3.0,7.0,78,0.00,,CLR,0.00,VWS V14.01,2013-11-08 06:50:00,
2013-11-07 23:55:00,35.6,28.5,29.79,NNE,26,1.0,1.0,75,0.00,,CLR,0.00,VWS V14.01,2013-11-08 06:55:00,